Shoreham-by-Sea, United Kingdom

10:23 PM GMT on October 31, 2014 (GMT +0000)
Shoreham-By-Sea | Change Station
CLOSE
Current Station
Personal Weather Station
Location: Shoreham-by-Sea,
Elevation: 10 ft
Nearby Weather Stations

Elev 10 ft 50.84 °N, 0.27 °W | Updated 17 seconds ago

Clear
Clear
61.3 °F
Feels Like 61.3 °F
N
0.0
Wind Variable Wind from East
Gusts 0.0 mph

Today
High -- | Low -- °F
--% Chance of Precip.
Yesterday
High -- | Low -- °F
Precip. -- in
6:50 AM 4:37 PM
First Quarter, 59% visible
Pressure 30.01 in
Visibility -9999.0 miles
Clouds
Dew Point 53 °F
Humidity 75%
Rainfall 0.00 in
Snow Depth Not available.
UV Not available.
Pollen Not available.
Air Quality Not available.
Flu Activity Not available.
METAR EGKK 312150Z 18006KT CAVOK 17/13 Q1016

More Conditions Fewer Conditions

Pressure 30.01 in
Visibility -9999.0 miles
Clouds
Dew Point 53 °F
Humidity 75%
Rainfall 0.00 in
Snow Depth Not available.
UV Not available.
Pollen Not available.
Air Quality Not available.
Flu Activity Not available.
METAR EGKK 312150Z 18006KT CAVOK 17/13 Q1016

More Conditions Fewer Conditions

10-Day Weather Forecast

Almanac

Astronomy

Oct. 31, 2014 Rise Set
Actual Time
Civil Twilight
Nautical Twilight
Astronomical Twilight
Moon
Length of Visible Light
Length of Day
Tomorrow will be .
, % of the Moon is Illuminated

Today's Extremes

Country Highs Country Lows

Community

WunderPhotos

Upload Photos

1,766,757 photos uploaded!

WunderBlogs® & News

Nearby

Air Quality

  Air Quality AQ Index Pollutant
Not available.

Snow Depth

Station Depth Elevation

Earthquake Activity

City Distance Mag. Time & Date
Minimum magnitude displayed is 2.5.

Coastal Water Temperatures

Place Temperature

Nearby Weather Stations